createdAt,value
2022-08-03T00:01:31.818Z,16.80
2022-08-03T00:03:58.997Z,16.80
2022-08-03T00:06:26.048Z,16.70
2022-08-03T00:08:53.044Z,16.70
2022-08-03T00:11:20.121Z,16.70
2022-08-03T00:13:47.636Z,16.60
2022-08-03T00:16:14.870Z,16.60
2022-08-03T00:18:42.135Z,16.60
2022-08-03T00:21:09.311Z,16.60
2022-08-03T00:23:52.233Z,16.60
2022-08-03T00:26:20.959Z,16.60
2022-08-03T00:28:48.430Z,16.60
2022-08-03T00:31:15.464Z,16.60
2022-08-03T00:33:58.721Z,16.50
2022-08-03T00:36:29.774Z,16.50
2022-08-03T00:38:57.017Z,16.50
2022-08-03T00:41:24.410Z,16.40
2022-08-03T00:43:51.457Z,16.40
2022-08-03T00:46:21.758Z,16.40
2022-08-03T00:48:53.336Z,16.40
2022-08-03T00:51:24.214Z,16.40
2022-08-03T00:53:51.671Z,16.40
2022-08-03T00:56:19.066Z,16.40
2022-08-03T00:58:47.248Z,16.30
2022-08-03T01:01:15.403Z,16.30
2022-08-03T01:03:42.842Z,16.30
2022-08-03T01:07:01.573Z,16.20
2022-08-03T01:09:38.664Z,16.10
2022-08-03T01:12:22.723Z,16.10
2022-08-03T01:15:15.699Z,16.10
2022-08-03T01:17:56.784Z,16.00
2022-08-03T01:20:27.513Z,16.00
2022-08-03T01:23:10.680Z,15.90
2022-08-03T01:26:06.165Z,15.90
2022-08-03T01:28:51.795Z,15.80
2022-08-03T01:31:26.362Z,15.80
2022-08-03T01:34:01.412Z,15.70
2022-08-03T01:36:35.434Z,15.70
2022-08-03T01:39:09.603Z,15.70
2022-08-03T01:41:42.548Z,15.60
2022-08-03T01:44:27.446Z,15.60
2022-08-03T01:47:02.570Z,15.50
2022-08-03T01:49:33.881Z,15.50
2022-08-03T01:52:05.406Z,15.60
2022-08-03T01:54:37.873Z,15.60
2022-08-03T01:57:06.141Z,15.60
2022-08-03T01:59:35.531Z,15.60
2022-08-03T02:02:15.952Z,15.60
2022-08-03T02:04:53.849Z,15.50
2022-08-03T02:07:21.279Z,15.50
2022-08-03T02:09:51.830Z,15.50
2022-08-03T02:12:19.636Z,15.50
2022-08-03T02:14:48.928Z,15.50
2022-08-03T02:17:16.729Z,15.50
2022-08-03T02:19:44.777Z,15.50
2022-08-03T02:22:14.174Z,15.40
2022-08-03T02:24:41.541Z,15.40
2022-08-03T02:27:24.451Z,15.30
2022-08-03T02:30:02.843Z,15.20
2022-08-03T02:32:41.399Z,15.20
2022-08-03T02:35:13.371Z,15.20
2022-08-03T02:37:50.007Z,15.20
2022-08-03T02:40:19.489Z,15.20
2022-08-03T02:42:49.529Z,15.20
2022-08-03T02:45:18.460Z,15.20
2022-08-03T02:47:54.430Z,15.30
2022-08-03T02:50:23.792Z,15.30
2022-08-03T02:52:52.465Z,15.30
2022-08-03T02:55:22.671Z,15.20
2022-08-03T02:57:51.645Z,15.20
2022-08-03T03:00:19.494Z,15.10
2022-08-03T03:03:00.552Z,15.10
2022-08-03T03:05:52.107Z,15.10
2022-08-03T03:08:20.908Z,15.00
2022-08-03T03:10:56.593Z,15.00
2022-08-03T03:13:24.366Z,15.00
2022-08-03T03:15:52.807Z,15.00
2022-08-03T03:18:22.814Z,15.00
2022-08-03T03:20:52.502Z,15.00
2022-08-03T03:23:22.347Z,15.00
2022-08-03T03:25:50.821Z,15.00
2022-08-03T03:28:18.160Z,15.00
2022-08-03T03:30:52.884Z,15.00
2022-08-03T03:33:21.777Z,15.00
2022-08-03T03:35:49.710Z,15.00
2022-08-03T03:38:16.753Z,15.00
2022-08-03T03:40:44.416Z,14.90
2022-08-03T03:43:13.136Z,14.90
2022-08-03T03:45:44.297Z,14.90
2022-08-03T03:48:11.585Z,14.90
2022-08-03T03:50:41.833Z,14.90
2022-08-03T03:53:12.880Z,14.90
2022-08-03T03:55:59.131Z,14.80
2022-08-03T03:58:28.407Z,14.80
2022-08-03T04:00:55.707Z,14.90
2022-08-03T04:03:22.802Z,14.90
2022-08-03T04:06:08.514Z,14.80
2022-08-03T04:08:54.153Z,14.80
2022-08-03T04:11:50.065Z,14.70
2022-08-03T04:14:26.924Z,14.80
2022-08-03T04:17:03.520Z,14.80
2022-08-03T04:19:38.756Z,14.90
2022-08-03T04:22:18.801Z,14.90
2022-08-03T04:24:52.493Z,15.00
2022-08-03T04:27:25.871Z,15.00
2022-08-03T04:29:56.838Z,15.00
2022-08-03T04:32:26.412Z,15.00
2022-08-03T04:34:53.836Z,15.10
2022-08-03T04:37:43.600Z,15.10
2022-08-03T04:40:16.325Z,15.20
2022-08-03T04:42:50.097Z,15.20
2022-08-03T04:45:18.973Z,15.30
2022-08-03T04:47:46.222Z,15.40
2022-08-03T04:50:21.688Z,15.50
2022-08-03T04:52:49.393Z,15.70
2022-08-03T04:55:34.635Z,15.70
2022-08-03T04:58:03.300Z,15.90
2022-08-03T05:00:30.731Z,15.90
2022-08-03T05:02:57.811Z,15.90
2022-08-03T05:05:24.936Z,16.00
2022-08-03T05:07:51.981Z,16.10
2022-08-03T05:10:20.402Z,16.30
2022-08-03T05:12:48.758Z,16.50
2022-08-03T05:15:16.257Z,16.50
2022-08-03T05:17:43.719Z,16.60
2022-08-03T05:20:11.615Z,16.60
2022-08-03T05:22:38.641Z,16.70
2022-08-03T05:25:05.994Z,16.80
2022-08-03T05:27:33.006Z,16.90
2022-08-03T05:30:31.022Z,17.10
2022-08-03T05:32:47.104Z,17.40
2022-08-03T05:35:57.920Z,19.70
2022-08-03T05:38:03.750Z,23.20
2022-08-03T05:40:31.297Z,26.80
2022-08-03T05:42:58.845Z,29.50
2022-08-03T05:45:28.367Z,31.50
2022-08-03T05:47:55.970Z,32.90
2022-08-03T05:50:23.209Z,33.90
2022-08-03T05:52:50.501Z,34.90
2022-08-03T05:55:17.923Z,35.80
2022-08-03T05:57:47.842Z,36.50
2022-08-03T06:00:16.647Z,37.10
2022-08-03T06:02:43.780Z,37.40
2022-08-03T06:05:11.092Z,37.90
2022-08-03T06:07:38.257Z,38.10
2022-08-03T06:10:34.958Z,38.40
2022-08-03T06:12:53.038Z,38.60
2022-08-03T06:15:20.821Z,38.90
2022-08-03T06:17:52.138Z,38.80
2022-08-03T06:20:21.076Z,38.70
2022-08-03T06:22:50.752Z,38.50
2022-08-03T06:25:21.139Z,38.10
2022-08-03T06:27:48.511Z,37.70
2022-08-03T06:30:20.999Z,37.80
2022-08-03T06:32:51.939Z,37.30
2022-08-03T06:35:19.881Z,37.50
2022-08-03T06:37:49.020Z,38.20
2022-08-03T06:40:29.310Z,38.70
2022-08-03T06:43:00.357Z,39.00
2022-08-03T06:45:32.131Z,39.10
2022-08-03T06:48:03.130Z,39.70
2022-08-03T06:50:30.445Z,39.90
2022-08-03T06:52:57.506Z,40.10
2022-08-03T06:55:24.897Z,40.40
2022-08-03T06:57:52.287Z,40.30
2022-08-03T07:00:19.993Z,40.50
2022-08-03T07:02:47.526Z,40.50
2022-08-03T07:05:15.051Z,40.60
2022-08-03T07:07:42.302Z,40.40
2022-08-03T07:10:11.650Z,40.30
2022-08-03T07:12:55.580Z,39.70
2022-08-03T07:15:55.083Z,40.00
2022-08-03T07:18:10.732Z,39.40
2022-08-03T07:20:37.756Z,38.60
2022-08-03T07:23:04.795Z,39.00
2022-08-03T07:25:31.784Z,39.00
2022-08-03T07:27:58.926Z,38.30
2022-08-03T07:30:25.911Z,37.90
2022-08-03T07:32:52.924Z,38.20
2022-08-03T07:35:25.007Z,37.80
2022-08-03T07:37:54.428Z,37.20
2022-08-03T07:40:22.230Z,37.60
2022-08-03T07:42:52.123Z,37.30
2022-08-03T07:45:23.460Z,36.70
2022-08-03T07:47:53.558Z,36.90
2022-08-03T07:50:22.020Z,36.60
2022-08-03T07:52:50.100Z,35.70
2022-08-03T07:55:18.974Z,35.00
2022-08-03T07:57:46.011Z,35.00
2022-08-03T08:00:18.918Z,35.10
2022-08-03T08:02:46.506Z,34.90
2022-08-03T08:05:13.860Z,34.50
2022-08-03T08:07:40.996Z,33.90
2022-08-03T08:10:10.272Z,33.50
2022-08-03T08:12:38.963Z,33.20
2022-08-03T08:15:07.412Z,33.00
2022-08-03T08:17:53.996Z,32.60
2022-08-03T08:20:30.563Z,32.50
2022-08-03T08:23:01.978Z,32.40
2022-08-03T08:25:31.329Z,32.80
2022-08-03T08:28:29.332Z,32.40
2022-08-03T08:30:50.299Z,32.20
2022-08-03T08:33:23.380Z,31.90
2022-08-03T08:35:53.159Z,32.00
2022-08-03T08:38:20.445Z,31.90
2022-08-03T08:40:49.208Z,32.20
2022-08-03T08:43:16.339Z,32.30
2022-08-03T08:45:43.810Z,32.10
2022-08-03T08:48:13.256Z,32.20
2022-08-03T08:50:40.347Z,32.30
2022-08-03T08:53:09.710Z,32.30
2022-08-03T08:55:58.017Z,32.50
2022-08-03T08:58:29.242Z,32.10
2022-08-03T09:00:56.568Z,32.50
2022-08-03T09:03:30.211Z,32.80
2022-08-03T09:05:59.817Z,33.00
2022-08-03T09:08:26.952Z,33.40
2022-08-03T09:11:07.733Z,33.80
2022-08-03T09:13:35.999Z,34.40
2022-08-03T09:16:19.951Z,34.50
2022-08-03T09:18:53.316Z,34.30
2022-08-03T09:21:32.249Z,34.20
2022-08-03T09:24:03.325Z,34.40
2022-08-03T09:26:32.332Z,34.40
2022-08-03T09:29:13.188Z,34.10
2022-08-03T09:31:44.884Z,33.80
2022-08-03T09:34:15.083Z,33.50
2022-08-03T09:36:43.942Z,33.40
2022-08-03T09:39:15.830Z,33.50
2022-08-03T09:41:49.149Z,33.80
2022-08-03T09:44:25.840Z,33.80
2022-08-03T09:46:56.401Z,34.10
2022-08-03T09:49:24.564Z,34.30
2022-08-03T09:52:33.568Z,34.10
2022-08-03T09:54:39.020Z,34.20
2022-08-03T09:57:06.115Z,34.30
2022-08-03T09:59:34.104Z,34.40
2022-08-03T10:02:02.516Z,34.00
2022-08-03T10:04:29.577Z,34.00
2022-08-03T10:07:10.950Z,33.70
2022-08-03T10:09:38.434Z,32.90
2022-08-03T10:12:12.682Z,33.20
2022-08-03T10:14:42.424Z,33.10
2022-08-03T10:17:13.056Z,33.60
2022-08-03T10:19:41.363Z,33.70
2022-08-03T10:22:16.414Z,33.70
2022-08-03T10:25:07.106Z,33.60
2022-08-03T10:27:42.701Z,33.90
2022-08-03T10:30:11.508Z,34.20
2022-08-03T10:32:49.497Z,34.50
2022-08-03T10:35:20.245Z,35.00
2022-08-03T10:37:58.775Z,35.00
2022-08-03T10:43:28.736Z,35.50
2022-08-03T10:45:56.859Z,34.60
2022-08-03T10:48:25.166Z,34.90
2022-08-03T10:50:52.571Z,35.60
2022-08-03T10:53:36.213Z,36.10
2022-08-03T10:56:23.435Z,36.40
2022-08-03T10:59:09.796Z,35.80
2022-08-03T11:01:59.931Z,35.40
2022-08-03T11:04:30.017Z,35.50
2022-08-03T11:07:23.373Z,35.80
2022-08-03T11:09:54.582Z,36.00
2022-08-03T11:12:30.695Z,35.70
2022-08-03T11:15:07.692Z,35.00
2022-08-03T11:17:46.903Z,35.00
2022-08-03T11:20:54.783Z,35.00
2022-08-03T11:24:04.810Z,35.00
2022-08-03T11:26:29.251Z,34.80
2022-08-03T11:29:29.407Z,34.70
2022-08-03T11:31:56.710Z,35.00
2022-08-03T11:34:24.728Z,35.40
2022-08-03T11:37:27.259Z,35.90
2022-08-03T11:39:58.472Z,35.90
2022-08-03T11:42:26.416Z,35.50
2022-08-03T11:45:00.959Z,35.50
2022-08-03T11:47:30.109Z,35.80
2022-08-03T11:50:00.752Z,35.40
2022-08-03T11:52:34.314Z,35.60
2022-08-03T11:55:01.987Z,35.70
2022-08-03T11:59:19.156Z,35.00
2022-08-03T12:00:31.853Z,34.30
2022-08-03T12:03:04.681Z,34.40
2022-08-03T12:05:51.715Z,34.80
2022-08-03T12:08:28.739Z,35.00
2022-08-03T12:10:57.189Z,35.20
2022-08-03T12:14:45.265Z,35.20
2022-08-03T12:16:21.453Z,35.10
2022-08-03T12:19:15.973Z,35.00
2022-08-03T12:21:57.266Z,35.10
2022-08-03T12:24:24.702Z,35.20
2022-08-03T12:26:58.503Z,35.00
2022-08-03T12:29:27.291Z,35.20
2022-08-03T12:31:55.993Z,35.10
2022-08-03T12:34:23.456Z,35.60
2022-08-03T12:36:56.798Z,35.80
2022-08-03T12:39:26.551Z,35.50
2022-08-03T12:41:55.186Z,35.30
2022-08-03T12:44:36.705Z,35.00
2022-08-03T12:47:06.778Z,34.70
2022-08-03T12:49:51.269Z,34.70
2022-08-03T12:52:19.980Z,35.50
2022-08-03T12:55:01.142Z,36.00
2022-08-03T12:57:42.320Z,36.50
2022-08-03T13:00:28.859Z,36.40
2022-08-03T13:03:39.495Z,36.40
2022-08-03T13:05:51.250Z,36.40
2022-08-03T13:08:23.741Z,35.80
2022-08-03T13:10:51.739Z,35.50
2022-08-03T13:13:20.921Z,35.20
2022-08-03T13:15:48.393Z,35.10
2022-08-03T13:18:17.554Z,35.00
2022-08-03T13:20:44.881Z,35.00
2022-08-03T13:23:15.371Z,35.00
2022-08-03T13:25:55.150Z,35.20
2022-08-03T13:28:23.211Z,35.50
2022-08-03T13:30:50.351Z,35.70
2022-08-03T13:33:17.628Z,35.70
2022-08-03T13:35:44.702Z,36.10
2022-08-03T13:38:11.831Z,36.30
2022-08-03T13:40:41.833Z,36.60
2022-08-03T13:43:09.136Z,36.30
2022-08-03T13:45:36.243Z,36.20
2022-08-03T13:48:05.629Z,35.90
2022-08-03T13:50:33.238Z,35.50
2022-08-03T13:53:00.205Z,35.30
2022-08-03T13:55:27.286Z,35.10
2022-08-03T13:58:19.094Z,35.40
2022-08-03T14:00:41.436Z,35.80
2022-08-03T14:03:14.295Z,36.10
2022-08-03T14:05:43.315Z,35.90
2022-08-03T14:08:10.610Z,35.80
2022-08-03T14:10:39.894Z,35.90
2022-08-03T14:13:07.579Z,35.90
2022-08-03T14:15:38.284Z,35.60
2022-08-03T14:18:07.380Z,35.80
2022-08-03T14:20:47.701Z,36.20
2022-08-03T14:23:17.832Z,36.60
2022-08-03T14:25:52.039Z,36.80
2022-08-03T14:28:22.766Z,36.60
2022-08-03T14:30:51.064Z,36.50
2022-08-03T14:33:18.069Z,36.60
2022-08-03T14:35:45.056Z,36.80
2022-08-03T14:38:12.069Z,36.80
2022-08-03T14:40:39.139Z,36.70
2022-08-03T14:43:06.094Z,36.40
2022-08-03T14:45:34.407Z,36.30
2022-08-03T14:50:34.227Z,36.10
2022-08-03T14:50:51.597Z,36.00
2022-08-03T14:53:19.862Z,35.50
2022-08-03T14:55:51.591Z,35.10
2022-08-03T14:58:21.116Z,34.90
2022-08-03T15:00:49.892Z,34.80
2022-08-03T15:03:17.631Z,34.80
2022-08-03T15:05:44.956Z,35.00
2022-08-03T15:08:11.958Z,35.20
2022-08-03T15:10:40.309Z,35.40
2022-08-03T15:13:12.403Z,35.40
2022-08-03T15:15:39.471Z,34.90
2022-08-03T15:18:06.504Z,34.70
2022-08-03T15:20:43.844Z,34.90
2022-08-03T15:23:12.127Z,35.10
2022-08-03T15:26:31.914Z,35.40
2022-08-03T15:28:26.093Z,35.50
2022-08-03T15:30:53.421Z,35.70
2022-08-03T15:33:20.736Z,35.60
2022-08-03T15:35:48.066Z,35.40
2022-08-03T15:38:15.741Z,34.90
2022-08-03T15:40:42.854Z,35.00
2022-08-03T15:43:09.962Z,34.90
2022-08-03T15:45:37.402Z,34.80
2022-08-03T15:48:07.527Z,34.50
2022-08-03T15:50:35.106Z,34.50
2022-08-03T15:53:02.082Z,34.60
2022-08-03T15:55:29.183Z,34.50
2022-08-03T15:59:04.663Z,34.20
2022-08-03T16:00:44.382Z,34.20
2022-08-03T16:03:11.423Z,34.00
2022-08-03T16:05:38.803Z,33.90
2022-08-03T16:08:10.295Z,33.70
2022-08-03T16:10:40.837Z,33.70
2022-08-03T16:13:08.425Z,33.60
2022-08-03T16:15:38.664Z,33.60
2022-08-03T16:18:07.706Z,33.60
2022-08-03T16:20:35.375Z,33.40
2022-08-03T16:23:09.147Z,33.30
2022-08-03T16:25:42.295Z,33.40
2022-08-03T16:28:14.355Z,33.40
2022-08-03T16:30:43.413Z,33.40
2022-08-03T16:33:16.594Z,33.20
2022-08-03T16:35:45.974Z,33.00
2022-08-03T16:38:18.358Z,32.80
2022-08-03T16:40:47.539Z,32.80
2022-08-03T16:43:18.694Z,32.80
2022-08-03T16:45:46.679Z,32.90
2022-08-03T16:48:16.009Z,32.80
2022-08-03T16:50:45.092Z,32.70
2022-08-03T16:53:16.566Z,32.70
2022-08-03T16:55:51.989Z,32.60
2022-08-03T16:58:41.245Z,32.50
2022-08-03T17:01:21.559Z,32.50
2022-08-03T17:04:02.162Z,32.50
2022-08-03T17:06:36.379Z,32.60
2022-08-03T17:09:08.993Z,32.50
2022-08-03T17:11:44.065Z,32.40
2022-08-03T17:14:21.898Z,32.20
2022-08-03T17:16:52.713Z,32.20
2022-08-03T17:19:23.191Z,32.00
2022-08-03T17:21:58.118Z,31.90
2022-08-03T17:24:31.221Z,31.90
2022-08-03T17:27:02.749Z,31.80
2022-08-03T17:29:33.066Z,31.80
2022-08-03T17:32:09.277Z,31.70
2022-08-03T17:34:42.811Z,31.60
2022-08-03T17:37:50.004Z,31.40
2022-08-03T17:40:00.749Z,31.40
2022-08-03T17:42:39.206Z,31.20
2022-08-03T17:45:07.356Z,31.20
2022-08-03T17:47:42.279Z,31.10
2022-08-03T17:50:24.342Z,31.00
2022-08-03T17:53:15.500Z,31.00
2022-08-03T17:56:40.422Z,30.90
2022-08-03T17:59:50.803Z,30.70
2022-08-03T18:02:37.368Z,30.70
2022-08-03T18:05:16.857Z,30.60
2022-08-03T18:08:02.467Z,30.40
2022-08-03T18:10:49.965Z,30.30
2022-08-03T18:13:35.165Z,30.20
2022-08-03T18:16:17.972Z,30.20
2022-08-03T18:19:09.722Z,30.00
2022-08-03T18:22:03.382Z,29.90
2022-08-03T18:24:39.475Z,29.80
2022-08-03T18:27:24.969Z,29.70
2022-08-03T18:30:27.726Z,29.50
2022-08-03T18:34:17.380Z,29.30
2022-08-03T18:36:41.184Z,29.20
2022-08-03T18:39:19.844Z,28.90
2022-08-03T18:42:03.597Z,28.70
2022-08-03T18:44:58.815Z,28.50
2022-08-03T18:48:02.593Z,28.30
2022-08-03T18:50:48.216Z,28.10
2022-08-03T18:53:19.894Z,27.80
2022-08-03T18:56:10.798Z,27.70
2022-08-03T18:58:56.233Z,27.50
2022-08-03T19:02:00.032Z,27.30
2022-08-03T19:04:41.249Z,27.10
2022-08-03T19:07:18.236Z,26.90
2022-08-03T19:09:55.770Z,26.80
2022-08-03T19:12:47.015Z,26.60
2022-08-03T19:15:15.627Z,26.60
2022-08-03T19:17:53.218Z,26.40
2022-08-03T19:20:38.649Z,26.30
2022-08-03T19:23:06.708Z,26.20
2022-08-03T19:25:40.417Z,26.10
2022-08-03T19:28:09.378Z,25.90
2022-08-03T19:30:39.897Z,25.80
2022-08-03T19:33:15.437Z,25.80
2022-08-03T19:35:55.655Z,25.70
2022-08-03T19:38:28.780Z,25.50
2022-08-03T19:41:02.987Z,25.40
2022-08-03T19:43:52.809Z,25.40
2022-08-03T19:46:30.369Z,25.30
2022-08-03T19:50:15.847Z,25.20
2022-08-03T19:53:15.361Z,25.10
2022-08-03T19:56:20.578Z,24.90
2022-08-03T19:58:54.638Z,24.80
2022-08-03T20:01:50.207Z,24.60
2022-08-03T20:04:20.718Z,24.60
2022-08-03T20:06:50.637Z,24.50
2022-08-03T20:09:21.949Z,24.40
2022-08-03T20:11:51.731Z,24.40
2022-08-03T20:14:26.473Z,24.40
2022-08-03T20:17:56.040Z,24.30
2022-08-03T20:20:25.415Z,24.20
2022-08-03T20:22:58.970Z,24.00
2022-08-03T20:25:59.106Z,23.90
2022-08-03T20:28:35.315Z,23.90
2022-08-03T20:31:32.058Z,23.70
2022-08-03T20:34:04.272Z,23.70
2022-08-03T20:36:31.245Z,23.60
2022-08-03T20:38:59.008Z,23.60
2022-08-03T20:41:26.779Z,23.50
2022-08-03T20:43:54.138Z,23.40
2022-08-03T20:46:31.074Z,23.30
2022-08-03T20:49:05.385Z,23.20
2022-08-03T20:51:50.263Z,23.20
2022-08-03T20:54:29.451Z,23.10
2022-08-03T20:57:04.262Z,23.00
2022-08-03T20:59:50.154Z,22.90
2022-08-03T21:02:30.001Z,22.80
2022-08-03T21:08:06.495Z,22.80
2022-08-03T21:10:38.087Z,22.70
2022-08-03T21:13:07.969Z,22.80
2022-08-03T21:13:26.365Z,22.70
2022-08-03T21:16:07.079Z,22.70
2022-08-03T21:18:46.283Z,22.70
2022-08-03T21:21:16.402Z,22.70
2022-08-03T21:23:48.734Z,22.70
2022-08-03T21:26:18.735Z,22.60
2022-08-03T21:28:50.358Z,22.50
2022-08-03T21:31:25.276Z,22.50
2022-08-03T21:33:58.371Z,22.40
2022-08-03T21:36:28.060Z,22.40
2022-08-03T21:38:57.547Z,22.40
2022-08-03T21:41:30.547Z,22.40
2022-08-03T21:43:58.272Z,22.30
2022-08-03T21:46:27.511Z,22.30
2022-08-03T21:50:05.267Z,22.10
2022-08-03T21:51:49.977Z,21.90
2022-08-03T21:54:20.264Z,21.80
2022-08-03T21:56:51.200Z,21.70
2022-08-03T21:59:20.413Z,21.70
2022-08-03T22:01:49.564Z,21.70
2022-08-03T22:04:50.604Z,21.60
2022-08-03T22:07:10.352Z,21.60
2022-08-03T22:09:38.065Z,21.60
2022-08-03T22:12:05.719Z,21.40
2022-08-03T22:14:33.703Z,21.40
2022-08-03T22:17:00.964Z,21.30
2022-08-03T22:19:33.504Z,21.30
2022-08-03T22:22:04.690Z,21.20
2022-08-03T22:24:36.720Z,21.20
2022-08-03T22:27:23.304Z,21.10
2022-08-03T22:29:51.868Z,21.20
2022-08-03T22:32:19.802Z,21.10
2022-08-03T22:34:48.941Z,21.10
2022-08-03T22:37:18.596Z,21.10
2022-08-03T22:39:46.190Z,21.10
2022-08-03T22:42:13.849Z,21.00
2022-08-03T22:44:41.012Z,20.90
2022-08-03T22:47:09.909Z,20.80
2022-08-03T22:49:38.017Z,20.70
2022-08-03T22:52:06.040Z,20.70
2022-08-03T22:54:33.508Z,20.60
2022-08-03T22:57:00.957Z,20.60
2022-08-03T22:59:41.437Z,20.60
2022-08-03T23:02:21.478Z,20.60
2022-08-03T23:04:56.584Z,20.60
2022-08-03T23:07:51.302Z,20.50
2022-08-03T23:10:19.251Z,20.40
2022-08-03T23:12:50.169Z,20.40
2022-08-03T23:15:18.787Z,20.30
2022-08-03T23:17:57.390Z,20.40
2022-08-03T23:20:27.070Z,20.30
2022-08-03T23:22:57.750Z,20.20
2022-08-03T23:25:25.358Z,20.10
2022-08-03T23:28:05.432Z,20.20
2022-08-03T23:30:37.341Z,20.20
2022-08-03T23:33:06.387Z,20.20
2022-08-03T23:36:22.679Z,20.10
2022-08-03T23:38:40.432Z,20.00
2022-08-03T23:41:09.389Z,19.90
2022-08-03T23:43:51.125Z,19.80
2022-08-03T23:46:21.343Z,19.90
2022-08-03T23:48:48.336Z,19.90
2022-08-03T23:51:46.521Z,20.00
2022-08-03T23:54:40.292Z,19.80
2022-08-03T23:57:29.446Z,19.80
